createdAt,value
2018-12-31T00:02:09.467Z,2.27
2018-12-31T00:04:40.384Z,2.60
2018-12-31T00:07:11.302Z,4.10
2018-12-31T00:09:42.234Z,2.33
2018-12-31T00:12:13.208Z,2.07
2018-12-31T00:14:44.175Z,2.03
2018-12-31T00:17:15.090Z,2.27
2018-12-31T00:19:46.002Z,2.07
2018-12-31T00:22:16.954Z,1.83
2018-12-31T00:24:47.954Z,2.23
2018-12-31T00:27:18.873Z,2.43
2018-12-31T00:29:49.780Z,2.23
2018-12-31T00:32:20.704Z,2.33
2018-12-31T00:34:51.611Z,2.80
2018-12-31T00:37:22.549Z,3.27
2018-12-31T00:39:53.467Z,2.70
2018-12-31T00:42:24.428Z,2.90
2018-12-31T00:44:55.299Z,2.27
2018-12-31T00:47:26.262Z,2.40
2018-12-31T00:49:57.521Z,2.23
2018-12-31T00:52:28.424Z,2.93
2018-12-31T00:54:59.379Z,3.10
2018-12-31T00:57:30.300Z,3.10
2018-12-31T01:00:01.325Z,3.00
2018-12-31T01:02:33.105Z,2.87
2018-12-31T01:05:04.073Z,3.47
2018-12-31T01:07:34.975Z,3.20
2018-12-31T01:10:06.107Z,2.60
2018-12-31T01:12:37.064Z,2.90
2018-12-31T01:15:08.042Z,2.77
2018-12-31T01:17:39.013Z,2.90
2018-12-31T01:20:09.959Z,2.80
2018-12-31T01:22:40.893Z,3.30
2018-12-31T01:25:11.800Z,3.20
2018-12-31T01:27:42.745Z,3.27
2018-12-31T01:30:13.669Z,3.30
2018-12-31T01:32:44.648Z,3.03
2018-12-31T01:35:15.565Z,3.10
2018-12-31T01:37:46.505Z,2.93
2018-12-31T01:40:17.489Z,3.50
2018-12-31T01:42:48.443Z,3.53
2018-12-31T01:45:19.368Z,3.67
2018-12-31T01:47:50.283Z,3.57
2018-12-31T01:50:21.220Z,3.40
2018-12-31T01:52:52.141Z,4.00
2018-12-31T01:55:23.158Z,3.80
2018-12-31T01:57:54.057Z,3.60
2018-12-31T02:00:25.027Z,3.70
2018-12-31T02:02:55.943Z,3.50
2018-12-31T02:05:26.880Z,3.50
2018-12-31T02:07:57.809Z,4.20
2018-12-31T02:10:28.750Z,3.57
2018-12-31T02:12:59.696Z,4.10
2018-12-31T02:15:30.647Z,3.80
2018-12-31T02:18:01.571Z,4.27
2018-12-31T02:20:32.542Z,3.67
2018-12-31T02:23:03.473Z,3.90
2018-12-31T02:25:34.393Z,4.17
2018-12-31T02:28:05.659Z,4.13
2018-12-31T02:30:36.661Z,4.27
2018-12-31T02:33:07.602Z,4.40
2018-12-31T02:35:38.596Z,4.47
2018-12-31T02:38:09.532Z,3.97
2018-12-31T02:40:40.437Z,4.27
2018-12-31T02:43:11.590Z,4.60
2018-12-31T02:45:42.510Z,4.10
2018-12-31T02:48:13.745Z,4.50
2018-12-31T02:50:47.755Z,4.03
2018-12-31T02:53:21.094Z,4.47
2018-12-31T02:55:52.015Z,4.13
2018-12-31T02:58:22.958Z,4.43
2018-12-31T03:00:53.877Z,4.83
2018-12-31T03:03:24.788Z,5.57
2018-12-31T03:05:55.744Z,4.07
2018-12-31T03:08:29.766Z,4.53
2018-12-31T03:11:00.708Z,4.40
2018-12-31T03:13:36.455Z,4.27
2018-12-31T03:16:07.418Z,6.13
2018-12-31T03:18:38.407Z,5.50
2018-12-31T03:21:09.397Z,4.67
2018-12-31T03:23:40.394Z,5.47
2018-12-31T03:26:11.313Z,5.13
2018-12-31T03:28:42.346Z,5.40
2018-12-31T03:31:13.331Z,5.23
2018-12-31T03:33:44.222Z,5.60
2018-12-31T03:36:15.152Z,6.00
2018-12-31T03:38:46.108Z,6.57
2018-12-31T03:41:17.033Z,6.67
2018-12-31T03:43:47.981Z,6.47
2018-12-31T03:46:18.917Z,6.50
2018-12-31T03:48:49.842Z,7.30
2018-12-31T03:51:20.836Z,7.67
2018-12-31T03:53:51.755Z,7.20
2018-12-31T03:56:22.659Z,8.03
2018-12-31T03:58:53.569Z,7.70
2018-12-31T04:01:24.491Z,9.50
2018-12-31T04:03:55.406Z,9.23
2018-12-31T04:06:26.326Z,9.07
2018-12-31T04:08:57.238Z,8.73
2018-12-31T04:11:28.162Z,9.10
2018-12-31T04:13:59.071Z,9.47
2018-12-31T04:16:29.999Z,9.13
2018-12-31T04:19:02.003Z,9.03
2018-12-31T04:21:32.927Z,9.07
2018-12-31T04:24:03.864Z,9.27
2018-12-31T04:26:34.803Z,9.13
2018-12-31T04:29:05.759Z,9.17
2018-12-31T04:31:36.667Z,9.67
2018-12-31T04:34:07.591Z,9.27
2018-12-31T04:36:38.535Z,8.77
2018-12-31T04:39:09.471Z,9.10
2018-12-31T04:41:40.393Z,10.17
2018-12-31T04:44:11.307Z,11.77
2018-12-31T04:46:42.236Z,11.07
2018-12-31T04:49:13.220Z,10.50
2018-12-31T04:51:44.138Z,12.63
2018-12-31T04:54:15.081Z,11.73
2018-12-31T04:56:46.073Z,14.00
2018-12-31T04:59:17.021Z,12.33
2018-12-31T05:01:47.989Z,13.77
2018-12-31T05:04:18.948Z,15.27
2018-12-31T05:06:49.852Z,15.17
2018-12-31T05:09:20.794Z,14.80
2018-12-31T05:11:51.705Z,14.93
2018-12-31T05:14:22.632Z,17.63
2018-12-31T05:16:53.580Z,15.87
2018-12-31T05:19:24.508Z,17.50
2018-12-31T05:21:55.444Z,17.67
2018-12-31T05:24:26.449Z,18.43
2018-12-31T05:26:57.429Z,19.17
2018-12-31T05:29:28.367Z,17.80
2018-12-31T05:31:59.284Z,17.77
2018-12-31T05:34:30.208Z,18.83
2018-12-31T05:37:01.133Z,18.67
2018-12-31T05:39:32.062Z,19.27
2018-12-31T05:42:02.988Z,18.67
2018-12-31T05:44:33.925Z,19.57
2018-12-31T05:47:07.700Z,18.90
2018-12-31T05:49:38.693Z,19.37
2018-12-31T05:52:09.605Z,18.80
2018-12-31T05:54:40.661Z,18.73
2018-12-31T05:57:11.655Z,18.90
2018-12-31T05:59:42.550Z,21.20
2018-12-31T06:02:13.478Z,18.53
2018-12-31T06:04:44.423Z,17.47
2018-12-31T06:07:15.335Z,18.57
2018-12-31T06:09:46.252Z,17.73
2018-12-31T06:12:17.165Z,18.47
2018-12-31T06:14:49.149Z,18.17
2018-12-31T06:17:20.075Z,18.50
2018-12-31T06:19:51.006Z,18.17
2018-12-31T06:22:21.956Z,18.30
2018-12-31T06:24:52.879Z,17.83
2018-12-31T06:27:23.822Z,17.83
2018-12-31T06:29:54.749Z,16.40
2018-12-31T06:32:25.660Z,16.97
2018-12-31T06:34:56.868Z,16.27
2018-12-31T06:37:27.800Z,17.80
2018-12-31T06:39:58.698Z,17.17
2018-12-31T06:42:29.640Z,17.63
2018-12-31T06:45:00.611Z,16.97
2018-12-31T06:47:31.567Z,16.47
2018-12-31T06:50:02.486Z,16.63
2018-12-31T06:52:34.563Z,17.20
2018-12-31T06:55:05.659Z,18.27
2018-12-31T06:57:36.604Z,17.37
2018-12-31T07:00:07.604Z,17.53
2018-12-31T07:02:38.593Z,17.60
2018-12-31T07:05:09.556Z,17.00
2018-12-31T07:07:40.611Z,16.23
2018-12-31T07:10:11.600Z,17.13
2018-12-31T07:12:42.582Z,15.67
2018-12-31T07:15:13.496Z,15.70
2018-12-31T07:17:44.449Z,16.27
2018-12-31T07:20:15.400Z,14.60
2018-12-31T07:22:46.481Z,15.87
2018-12-31T07:25:17.416Z,16.90
2018-12-31T07:27:48.384Z,16.00
2018-12-31T07:30:19.396Z,16.20
2018-12-31T07:32:50.398Z,17.93
2018-12-31T07:35:21.306Z,18.87
2018-12-31T07:37:52.210Z,18.00
2018-12-31T07:40:23.188Z,16.80
2018-12-31T07:42:54.097Z,18.03
2018-12-31T07:45:25.018Z,17.60
2018-12-31T07:47:56.040Z,17.33
2018-12-31T07:50:28.163Z,18.53
2018-12-31T07:52:59.237Z,17.93
2018-12-31T07:55:30.226Z,20.10
2018-12-31T07:58:01.147Z,40.03
2018-12-31T08:00:32.126Z,23.13
2018-12-31T08:03:03.067Z,47.23
2018-12-31T08:05:34.067Z,31.27
2018-12-31T08:08:05.033Z,31.23
2018-12-31T08:10:36.086Z,20.13
2018-12-31T08:13:07.118Z,17.53
2018-12-31T08:15:38.272Z,18.57
2018-12-31T08:18:09.313Z,17.30
2018-12-31T08:20:40.276Z,18.57
2018-12-31T08:23:11.218Z,21.40
2018-12-31T08:25:42.170Z,19.90
2018-12-31T08:28:13.112Z,22.47
2018-12-31T08:30:44.149Z,22.67
2018-12-31T08:33:15.039Z,21.57
2018-12-31T08:35:45.986Z,17.07
2018-12-31T08:38:16.925Z,18.13
2018-12-31T08:40:47.907Z,17.80
2018-12-31T08:43:18.838Z,17.80
2018-12-31T08:45:49.807Z,20.53
2018-12-31T08:48:20.762Z,20.00
2018-12-31T08:50:51.737Z,21.37
2018-12-31T08:53:22.666Z,21.90
2018-12-31T08:55:53.711Z,21.40
2018-12-31T08:58:24.667Z,19.93
2018-12-31T09:00:55.602Z,18.50
2018-12-31T09:03:26.546Z,19.10
2018-12-31T09:05:57.524Z,18.07
2018-12-31T09:08:28.799Z,17.40
2018-12-31T09:10:59.743Z,18.70
2018-12-31T09:13:30.794Z,30.90
2018-12-31T09:16:01.788Z,19.30
2018-12-31T09:18:32.897Z,18.43
2018-12-31T09:21:03.766Z,18.60
2018-12-31T09:23:34.806Z,18.10
2018-12-31T09:26:05.875Z,20.30
2018-12-31T09:28:36.798Z,20.00
2018-12-31T09:31:07.919Z,20.47
2018-12-31T09:33:38.903Z,17.83
2018-12-31T09:36:09.832Z,16.47
2018-12-31T09:38:40.820Z,17.70
2018-12-31T09:41:11.837Z,17.40
2018-12-31T09:43:42.805Z,18.50
2018-12-31T09:46:13.773Z,18.60
2018-12-31T09:48:44.688Z,16.00
2018-12-31T09:51:15.637Z,17.73
2018-12-31T09:53:46.567Z,17.93
2018-12-31T09:56:17.525Z,19.27
2018-12-31T09:58:48.465Z,19.13
2018-12-31T10:01:19.435Z,19.83
2018-12-31T10:03:50.408Z,21.10
2018-12-31T10:06:21.363Z,19.60
2018-12-31T10:08:52.380Z,19.87
2018-12-31T10:11:23.367Z,18.97
2018-12-31T10:13:54.396Z,18.63
2018-12-31T10:16:25.345Z,18.93
2018-12-31T10:18:56.484Z,17.83
2018-12-31T10:21:27.418Z,17.37
2018-12-31T10:23:58.441Z,18.57
2018-12-31T10:26:29.378Z,18.60
2018-12-31T10:29:00.346Z,17.97
2018-12-31T10:31:31.309Z,18.53
2018-12-31T10:34:02.252Z,18.40
2018-12-31T10:36:33.211Z,17.13
2018-12-31T10:39:05.534Z,16.80
2018-12-31T10:41:36.585Z,17.33
2018-12-31T10:44:07.591Z,17.37
2018-12-31T10:46:38.554Z,17.20
2018-12-31T10:49:09.559Z,15.60
2018-12-31T10:51:40.618Z,17.70
2018-12-31T10:54:11.623Z,17.00
2018-12-31T10:56:42.562Z,16.20
2018-12-31T10:59:13.629Z,16.00
2018-12-31T11:01:44.551Z,16.90
2018-12-31T11:04:15.636Z,20.70
2018-12-31T11:06:46.801Z,15.10
2018-12-31T11:09:17.759Z,16.00
2018-12-31T11:11:48.734Z,15.07
2018-12-31T11:14:19.807Z,15.97
2018-12-31T11:16:50.809Z,17.07
2018-12-31T11:19:21.789Z,18.20
2018-12-31T11:21:52.723Z,16.10
2018-12-31T11:24:23.759Z,17.27
2018-12-31T11:26:54.735Z,18.27
2018-12-31T11:29:25.730Z,17.10
2018-12-31T11:31:56.626Z,15.57
2018-12-31T11:34:27.597Z,16.47
2018-12-31T11:36:58.556Z,16.70
2018-12-31T11:39:30.620Z,16.07
2018-12-31T11:42:01.640Z,15.43
2018-12-31T11:44:32.663Z,16.50
2018-12-31T11:47:03.762Z,16.10
2018-12-31T11:49:34.774Z,15.60
2018-12-31T11:52:05.705Z,13.77
2018-12-31T11:54:36.672Z,13.50
2018-12-31T11:57:07.612Z,13.90
2018-12-31T11:59:38.785Z,12.73
2018-12-31T12:02:09.720Z,11.80
2018-12-31T12:04:40.688Z,11.43
2018-12-31T12:07:11.685Z,11.93
2018-12-31T12:09:42.691Z,12.67
2018-12-31T12:12:13.709Z,12.00
2018-12-31T12:14:44.760Z,12.23
2018-12-31T12:17:15.758Z,13.47
2018-12-31T12:19:46.717Z,13.47
2018-12-31T12:22:17.666Z,12.33
2018-12-31T12:24:48.927Z,14.10
2018-12-31T12:27:19.891Z,14.23
2018-12-31T12:29:51.014Z,13.67
2018-12-31T12:32:22.036Z,13.77
2018-12-31T12:34:52.937Z,13.00
2018-12-31T12:37:23.897Z,14.03
2018-12-31T12:39:54.939Z,13.17
2018-12-31T12:42:26.105Z,13.27
2018-12-31T12:44:57.203Z,13.77
2018-12-31T12:47:28.577Z,13.87
2018-12-31T12:49:59.553Z,12.90
2018-12-31T12:52:30.523Z,12.57
2018-12-31T12:55:01.518Z,11.97
2018-12-31T12:57:35.917Z,12.47
2018-12-31T13:00:07.589Z,11.37
2018-12-31T13:02:38.692Z,11.40
2018-12-31T13:05:10.890Z,11.53
2018-12-31T13:07:42.232Z,12.13
2018-12-31T13:10:13.456Z,11.47
2018-12-31T13:12:44.536Z,12.03
2018-12-31T13:15:15.578Z,12.53
2018-12-31T13:17:46.947Z,13.50
2018-12-31T13:20:21.100Z,13.43
2018-12-31T13:22:52.128Z,14.53
2018-12-31T13:25:23.121Z,14.97
2018-12-31T13:27:54.190Z,13.77
2018-12-31T13:30:25.680Z,13.43
2018-12-31T13:33:00.020Z,13.40
2018-12-31T13:35:33.680Z,12.70
2018-12-31T13:38:04.698Z,11.73
2018-12-31T13:40:35.796Z,14.53
2018-12-31T13:43:06.934Z,23.27
2018-12-31T13:45:38.074Z,18.03
2018-12-31T13:48:36.157Z,16.23
2018-12-31T13:51:12.965Z,15.00
2018-12-31T13:53:44.035Z,15.73
2018-12-31T13:56:17.537Z,13.50
2018-12-31T13:58:48.022Z,13.37
2018-12-31T14:01:19.297Z,11.80
2018-12-31T14:03:50.294Z,10.97
2018-12-31T14:06:21.648Z,12.10
2018-12-31T14:08:52.703Z,11.50
2018-12-31T14:11:23.661Z,12.03
2018-12-31T14:13:54.934Z,13.67
2018-12-31T14:16:26.292Z,14.53
2018-12-31T14:18:58.569Z,15.60
2018-12-31T14:21:29.631Z,13.43
2018-12-31T14:24:00.560Z,12.03
2018-12-31T14:26:31.997Z,12.30
2018-12-31T14:29:26.761Z,11.93
2018-12-31T14:32:00.811Z,10.63
2018-12-31T14:34:32.264Z,11.17
2018-12-31T14:37:03.336Z,11.47
2018-12-31T14:39:34.475Z,10.80
2018-12-31T14:42:05.497Z,12.33
2018-12-31T14:44:36.516Z,12.87
2018-12-31T14:47:07.603Z,14.43
2018-12-31T14:49:46.861Z,16.23
2018-12-31T14:52:17.892Z,18.07
2018-12-31T14:54:49.168Z,18.50
2018-12-31T14:57:20.217Z,21.03
2018-12-31T14:59:51.488Z,23.97
2018-12-31T15:02:22.522Z,24.80
2018-12-31T15:05:01.206Z,22.03
2018-12-31T15:07:32.531Z,21.30
2018-12-31T15:10:03.633Z,17.57
2018-12-31T15:12:34.723Z,17.33
2018-12-31T15:15:06.032Z,16.10
2018-12-31T15:17:37.717Z,15.80
2018-12-31T15:20:11.145Z,16.33
2018-12-31T15:22:43.420Z,15.50
2018-12-31T15:25:14.441Z,15.20
2018-12-31T15:27:45.496Z,16.90
2018-12-31T15:30:16.513Z,16.67
2018-12-31T15:32:47.446Z,15.97
2018-12-31T15:35:18.460Z,14.43
2018-12-31T15:37:49.539Z,15.03
2018-12-31T15:40:20.566Z,16.43
2018-12-31T15:42:51.621Z,16.03
2018-12-31T15:45:22.634Z,16.50
2018-12-31T15:47:54.033Z,16.23
2018-12-31T15:50:24.985Z,17.80
2018-12-31T15:52:55.974Z,32.07
2018-12-31T15:55:26.927Z,23.40
2018-12-31T15:57:57.878Z,23.57
2018-12-31T16:00:31.792Z,23.27
2018-12-31T16:03:02.714Z,22.23
2018-12-31T16:05:33.636Z,18.13
2018-12-31T16:08:04.831Z,15.03
2018-12-31T16:10:35.804Z,14.47
2018-12-31T16:13:06.911Z,13.03
2018-12-31T16:15:38.663Z,13.47
2018-12-31T16:18:09.661Z,13.80
2018-12-31T16:20:40.915Z,15.77
2018-12-31T16:23:11.839Z,15.57
2018-12-31T16:25:42.776Z,14.27
2018-12-31T16:28:13.757Z,15.07
2018-12-31T16:30:45.006Z,15.13
2018-12-31T16:33:16.006Z,14.70
2018-12-31T16:35:47.007Z,14.30
2018-12-31T16:38:17.936Z,16.53
2018-12-31T16:40:48.943Z,17.93
2018-12-31T16:43:19.892Z,16.97
2018-12-31T16:45:50.996Z,16.73
2018-12-31T16:48:22.019Z,18.57
2018-12-31T16:50:52.954Z,19.30
2018-12-31T16:53:24.337Z,18.87
2018-12-31T16:55:55.257Z,18.37
2018-12-31T16:58:26.180Z,18.97
2018-12-31T17:00:57.211Z,21.17
2018-12-31T17:03:28.244Z,22.83
2018-12-31T17:05:59.192Z,25.60
2018-12-31T17:08:30.127Z,25.37
2018-12-31T17:11:01.070Z,22.07
2018-12-31T17:13:32.010Z,20.57
2018-12-31T17:16:02.944Z,20.03
2018-12-31T17:18:33.908Z,20.00
2018-12-31T17:21:04.984Z,20.80
2018-12-31T17:23:36.058Z,21.23
2018-12-31T17:26:07.193Z,19.77
2018-12-31T17:28:38.246Z,19.73
2018-12-31T17:31:09.196Z,17.90
2018-12-31T17:33:40.184Z,17.90
2018-12-31T17:36:16.613Z,18.57
2018-12-31T17:38:49.003Z,17.47
2018-12-31T17:41:20.182Z,18.57
2018-12-31T17:43:51.341Z,17.83
2018-12-31T17:46:22.343Z,19.27
2018-12-31T17:48:53.624Z,17.87
2018-12-31T17:51:24.564Z,18.00
2018-12-31T17:53:55.524Z,17.87
2018-12-31T17:56:26.549Z,16.77
2018-12-31T17:58:57.689Z,15.77
2018-12-31T18:01:28.645Z,17.90
2018-12-31T18:03:59.560Z,16.60
2018-12-31T18:06:30.521Z,16.13
2018-12-31T18:09:03.599Z,16.13
2018-12-31T18:11:35.245Z,16.43
2018-12-31T18:14:06.210Z,16.27
2018-12-31T18:16:37.177Z,17.07
2018-12-31T18:19:08.267Z,15.97
2018-12-31T18:21:39.638Z,15.87
2018-12-31T18:24:10.690Z,15.50
2018-12-31T18:26:41.631Z,16.53
2018-12-31T18:29:12.618Z,16.97
2018-12-31T18:31:43.677Z,16.27
2018-12-31T18:34:14.769Z,16.93
2018-12-31T18:36:45.720Z,17.80
2018-12-31T18:39:16.745Z,16.37
2018-12-31T18:41:47.750Z,18.07
2018-12-31T18:44:18.868Z,18.60
2018-12-31T18:46:50.212Z,18.77
2018-12-31T18:49:21.224Z,20.87
2018-12-31T18:51:52.182Z,25.80
2018-12-31T18:54:23.170Z,28.27
2018-12-31T18:56:54.153Z,29.40
2018-12-31T18:59:25.105Z,31.33
2018-12-31T19:01:56.132Z,31.77
2018-12-31T19:04:27.098Z,35.10
2018-12-31T19:06:58.380Z,43.40
2018-12-31T19:09:29.432Z,47.63
2018-12-31T19:12:00.436Z,48.50
2018-12-31T19:14:31.393Z,55.07
2018-12-31T19:17:02.456Z,44.53
2018-12-31T19:19:33.573Z,43.40
2018-12-31T19:22:04.643Z,39.77
2018-12-31T19:24:35.625Z,40.13
2018-12-31T19:27:06.679Z,40.47
2018-12-31T19:29:37.617Z,40.20
2018-12-31T19:32:08.657Z,39.40
2018-12-31T19:34:39.686Z,40.73
2018-12-31T19:37:10.773Z,40.13
2018-12-31T19:39:41.816Z,39.07
2018-12-31T19:42:12.756Z,36.13
2018-12-31T19:44:43.716Z,34.43
2018-12-31T19:47:14.687Z,34.67
2018-12-31T19:49:45.657Z,31.10
2018-12-31T19:52:16.584Z,31.60
2018-12-31T19:54:47.578Z,29.57
2018-12-31T19:57:18.528Z,29.30
2018-12-31T19:59:49.468Z,30.50
2018-12-31T20:02:20.668Z,30.20
2018-12-31T20:04:51.617Z,29.37
2018-12-31T20:07:22.550Z,32.33
2018-12-31T20:09:53.487Z,30.33
2018-12-31T20:12:25.495Z,31.07
2018-12-31T20:14:56.448Z,32.47
2018-12-31T20:17:27.397Z,31.17
2018-12-31T20:19:58.330Z,34.13
2018-12-31T20:22:29.296Z,33.47
2018-12-31T20:25:00.751Z,33.13
2018-12-31T20:27:31.643Z,33.50
2018-12-31T20:30:02.594Z,32.87
2018-12-31T20:32:33.618Z,32.00
2018-12-31T20:35:05.529Z,32.67
2018-12-31T20:37:36.644Z,33.13
2018-12-31T20:40:07.613Z,32.40
2018-12-31T20:42:38.697Z,33.87
2018-12-31T20:45:09.634Z,33.73
2018-12-31T20:47:40.597Z,33.27
2018-12-31T20:50:11.534Z,36.20
2018-12-31T20:52:42.538Z,35.20
2018-12-31T20:55:13.476Z,34.07
2018-12-31T20:57:44.387Z,34.73
2018-12-31T21:00:15.385Z,33.77
2018-12-31T21:02:46.373Z,58.70
2018-12-31T21:05:17.325Z,34.13
2018-12-31T21:07:48.399Z,32.83
2018-12-31T21:10:19.507Z,31.30
2018-12-31T21:12:50.719Z,29.17
2018-12-31T21:15:21.634Z,29.53
2018-12-31T21:17:52.671Z,31.47
2018-12-31T21:20:23.688Z,29.10
2018-12-31T21:22:54.725Z,28.07
2018-12-31T21:25:25.676Z,29.03
2018-12-31T21:27:56.719Z,29.93
2018-12-31T21:30:27.724Z,30.13
2018-12-31T21:32:58.777Z,32.20
2018-12-31T21:35:31.072Z,32.70
2018-12-31T21:38:02.167Z,32.40
2018-12-31T21:40:33.108Z,32.67
2018-12-31T21:43:04.123Z,32.43
2018-12-31T21:45:35.086Z,31.37
2018-12-31T21:48:06.065Z,31.60
2018-12-31T21:50:37.075Z,33.27
2018-12-31T21:53:08.067Z,31.60
2018-12-31T21:55:39.117Z,32.27
2018-12-31T21:58:10.349Z,31.80
2018-12-31T22:00:41.382Z,32.47
2018-12-31T22:03:12.324Z,33.03
2018-12-31T22:05:43.374Z,33.30
2018-12-31T22:08:14.443Z,34.23
2018-12-31T22:10:45.418Z,33.27
2018-12-31T22:13:16.373Z,32.63
2018-12-31T22:15:47.414Z,31.83
2018-12-31T22:18:18.467Z,32.10
2018-12-31T22:20:50.527Z,32.10
2018-12-31T22:23:21.634Z,32.23
2018-12-31T22:25:52.641Z,30.07
2018-12-31T22:28:23.735Z,29.53
2018-12-31T22:30:54.706Z,28.13
2018-12-31T22:33:25.718Z,25.93
2018-12-31T22:35:56.693Z,25.87
2018-12-31T22:38:27.835Z,26.37
2018-12-31T22:40:58.788Z,77.67
2018-12-31T22:43:30.081Z,27.73
2018-12-31T22:46:01.010Z,25.37
2018-12-31T22:48:32.008Z,24.63
2018-12-31T22:51:03.024Z,24.33
2018-12-31T22:53:34.038Z,25.03
2018-12-31T22:56:05.018Z,30.70
2018-12-31T22:58:35.974Z,76.40
2018-12-31T23:01:07.014Z,32.70
2018-12-31T23:03:38.225Z,36.10
2018-12-31T23:06:09.394Z,29.70
2018-12-31T23:08:40.337Z,33.50
2018-12-31T23:11:11.313Z,35.87
2018-12-31T23:13:42.955Z,53.80
2018-12-31T23:16:17.701Z,42.90
2018-12-31T23:18:48.634Z,40.60
2018-12-31T23:21:19.557Z,42.67
2018-12-31T23:23:50.522Z,46.73
2018-12-31T23:26:22.023Z,47.50
2018-12-31T23:28:53.038Z,48.33
2018-12-31T23:31:24.130Z,47.03
2018-12-31T23:33:55.459Z,43.00
2018-12-31T23:36:26.413Z,43.57
2018-12-31T23:39:05.061Z,40.97
2018-12-31T23:41:30.097Z,42.17
2018-12-31T23:44:01.047Z,43.53
2018-12-31T23:46:32.081Z,43.90
2018-12-31T23:49:03.309Z,44.57
2018-12-31T23:51:34.342Z,46.17
2018-12-31T23:54:05.342Z,51.23
2018-12-31T23:56:36.337Z,49.90
2018-12-31T23:59:07.273Z,50.37
